Kellogg, Iowa
Current Conditions -  °F | °C
As of 11:55 AM on Saturday 25 Oct 2014 (Local Time) from KTNU Reporting Station
Clear Clear  
Wind Chill: 66°   Ceiling: Unl
Heat Index: 66°   Visibility: 9mi
Dew Point: 41°   Wind: 9mph
Humidity: 40%   Direction: 20°NNE
Pressure: 30.1"   Gusts: NA
Location:  41.72°N, 92.91°W
Report Text: KTNU 251655Z AUTO 02008KT 9SM CLR 19/05 A3010 RMK AO2
Loading
Personal Weather Stations






























Interactive Weather Map
Tropical Storm Tracking
New forecast layout! Learn more

10-Day Weather Forecast

Advertisements
Track Severe Weather on mobile